sensor_id;sensor_type;location;lat;lon;timestamp;P1;durP1;ratioP1;P2;durP2;ratioP2
54937;SDS011;52756;52.826;6.214;2022-10-23T00:01:13;15.88;;;10.48;;
54937;SDS011;52756;52.826;6.214;2022-10-23T00:03:39;17.98;;;11.73;;
54937;SDS011;52756;52.826;6.214;2022-10-23T00:06:05;15.35;;;11.57;;
54937;SDS011;52756;52.826;6.214;2022-10-23T00:08:31;18.42;;;11.35;;
54937;SDS011;52756;52.826;6.214;2022-10-23T00:10:57;18.02;;;11.45;;
54937;SDS011;52756;52.826;6.214;2022-10-23T00:13:23;21.52;;;12.70;;
54937;SDS011;52756;52.826;6.214;2022-10-23T00:15:48;13.15;;;10.10;;
54937;SDS011;52756;52.826;6.214;2022-10-23T00:18:14;13.77;;;10.50;;
54937;SDS011;52756;52.826;6.214;2022-10-23T00:20:40;11.02;;;7.70;;
54937;SDS011;52756;52.826;6.214;2022-10-23T00:23:05;8.55;;;7.65;;
54937;SDS011;52756;52.826;6.214;2022-10-23T00:25:31;15.38;;;8.02;;
54937;SDS011;52756;52.826;6.214;2022-10-23T00:27:57;16.55;;;11.57;;
54937;SDS011;52756;52.826;6.214;2022-10-23T00:30:23;14.65;;;10.77;;
54937;SDS011;52756;52.826;6.214;2022-10-23T00:32:49;16.65;;;12.00;;
54937;SDS011;52756;52.826;6.214;2022-10-23T00:35:15;9.75;;;8.25;;
54937;SDS011;52756;52.826;6.214;2022-10-23T00:37:41;10.55;;;9.07;;
54937;SDS011;52756;52.826;6.214;2022-10-23T00:40:07;10.85;;;7.75;;
54937;SDS011;52756;52.826;6.214;2022-10-23T00:42:33;9.55;;;6.65;;
54937;SDS011;52756;52.826;6.214;2022-10-23T00:47:50;11.90;;;7.18;;
54937;SDS011;52756;52.826;6.214;2022-10-23T00:50:17;9.50;;;6.70;;
54937;SDS011;52756;52.826;6.214;2022-10-23T00:52:50;10.00;;;8.35;;
54937;SDS011;52756;52.826;6.214;2022-10-23T00:55:18;11.27;;;7.13;;
54937;SDS011;52756;52.826;6.214;2022-10-23T00:57:46;11.85;;;7.25;;
54937;SDS011;52756;52.826;6.214;2022-10-23T01:00:23;8.30;;;6.15;;
54937;SDS011;52756;52.826;6.214;2022-10-23T01:02:55;8.15;;;6.22;;
54937;SDS011;52756;52.826;6.214;2022-10-23T01:05:24;7.38;;;6.10;;
54937;SDS011;52756;52.826;6.214;2022-10-23T01:08:01;10.95;;;8.15;;
54937;SDS011;52756;52.826;6.214;2022-10-23T01:10:35;8.20;;;6.38;;
54937;SDS011;52756;52.826;6.214;2022-10-23T01:16:37;9.30;;;6.63;;
54937;SDS011;52756;52.826;6.214;2022-10-23T01:19:32;14.77;;;10.30;;
54937;SDS011;52756;52.826;6.214;2022-10-23T01:22:25;13.30;;;10.45;;
54937;SDS011;52756;52.826;6.214;2022-10-23T01:25:29;12.60;;;9.73;;
54937;SDS011;52756;52.826;6.214;2022-10-23T01:28:13;9.20;;;8.30;;
54937;SDS011;52756;52.826;6.214;2022-10-23T01:33:14;13.13;;;9.20;;
54937;SDS011;52756;52.826;6.214;2022-10-23T01:35:47;8.83;;;6.63;;
54937;SDS011;52756;52.826;6.214;2022-10-23T01:38:24;11.88;;;10.02;;
54937;SDS011;52756;52.826;6.214;2022-10-23T01:41:00;15.60;;;11.02;;
54937;SDS011;52756;52.826;6.214;2022-10-23T01:43:33;13.00;;;10.75;;
54937;SDS011;52756;52.826;6.214;2022-10-23T01:46:16;16.23;;;11.75;;
54937;SDS011;52756;52.826;6.214;2022-10-23T01:48:43;14.18;;;10.68;;
54937;SDS011;52756;52.826;6.214;2022-10-23T01:51:16;16.00;;;12.13;;
54937;SDS011;52756;52.826;6.214;2022-10-23T01:53:43;15.60;;;11.23;;
54937;SDS011;52756;52.826;6.214;2022-10-23T01:56:13;10.82;;;8.32;;
54937;SDS011;52756;52.826;6.214;2022-10-23T01:58:43;12.20;;;8.88;;
54937;SDS011;52756;52.826;6.214;2022-10-23T02:01:12;10.75;;;7.85;;
54937;SDS011;52756;52.826;6.214;2022-10-23T02:03:40;8.63;;;7.10;;
54937;SDS011;52756;52.826;6.214;2022-10-23T02:06:07;12.55;;;10.65;;
54937;SDS011;52756;52.826;6.214;2022-10-23T02:08:33;14.07;;;11.05;;
54937;SDS011;52756;52.826;6.214;2022-10-23T02:11:02;10.32;;;8.48;;
54937;SDS011;52756;52.826;6.214;2022-10-23T02:13:33;12.55;;;8.93;;
54937;SDS011;52756;52.826;6.214;2022-10-23T02:19:04;9.75;;;8.25;;
54937;SDS011;52756;52.826;6.214;2022-10-23T02:21:50;15.68;;;11.52;;
54937;SDS011;52756;52.826;6.214;2022-10-23T02:24:19;11.20;;;9.32;;
54937;SDS011;52756;52.826;6.214;2022-10-23T02:26:58;6.93;;;6.22;;
54937;SDS011;52756;52.826;6.214;2022-10-23T02:29:27;9.27;;;6.53;;
54937;SDS011;52756;52.826;6.214;2022-10-23T02:32:04;8.05;;;6.45;;
54937;SDS011;52756;52.826;6.214;2022-10-23T02:34:32;8.60;;;6.43;;
54937;SDS011;52756;52.826;6.214;2022-10-23T02:36:58;9.50;;;7.88;;
54937;SDS011;52756;52.826;6.214;2022-10-23T02:39:23;7.15;;;5.70;;
54937;SDS011;52756;52.826;6.214;2022-10-23T02:41:54;7.63;;;6.82;;
54937;SDS011;52756;52.826;6.214;2022-10-23T02:47:42;8.27;;;7.40;;
54937;SDS011;52756;52.826;6.214;2022-10-23T02:52:58;8.68;;;7.85;;
54937;SDS011;52756;52.826;6.214;2022-10-23T03:00:48;14.90;;;11.73;;
54937;SDS011;52756;52.826;6.214;2022-10-23T03:03:19;16.58;;;11.75;;
54937;SDS011;52756;52.826;6.214;2022-10-23T03:05:51;15.05;;;12.32;;
54937;SDS011;52756;52.826;6.214;2022-10-23T03:08:17;19.25;;;12.70;;
54937;SDS011;52756;52.826;6.214;2022-10-23T03:10:42;17.88;;;13.55;;
54937;SDS011;52756;52.826;6.214;2022-10-23T03:13:09;22.58;;;14.57;;
54937;SDS011;52756;52.826;6.214;2022-10-23T03:15:35;16.65;;;14.30;;
54937;SDS011;52756;52.826;6.214;2022-10-23T03:18:01;19.65;;;13.27;;
54937;SDS011;52756;52.826;6.214;2022-10-23T03:20:27;18.60;;;14.70;;
54937;SDS011;52756;52.826;6.214;2022-10-23T03:22:52;16.40;;;13.80;;
54937;SDS011;52756;52.826;6.214;2022-10-23T03:25:18;19.27;;;14.32;;
54937;SDS011;52756;52.826;6.214;2022-10-23T03:27:43;14.88;;;12.93;;
54937;SDS011;52756;52.826;6.214;2022-10-23T03:30:09;17.40;;;11.95;;
54937;SDS011;52756;52.826;6.214;2022-10-23T03:32:35;19.80;;;15.20;;
54937;SDS011;52756;52.826;6.214;2022-10-23T03:35:01;22.45;;;15.52;;
54937;SDS011;52756;52.826;6.214;2022-10-23T03:37:26;17.05;;;12.90;;
54937;SDS011;52756;52.826;6.214;2022-10-23T03:39:52;19.70;;;14.23;;
54937;SDS011;52756;52.826;6.214;2022-10-23T03:42:18;21.45;;;14.52;;
54937;SDS011;52756;52.826;6.214;2022-10-23T03:44:43;19.77;;;14.50;;
54937;SDS011;52756;52.826;6.214;2022-10-23T03:47:09;17.15;;;13.05;;
54937;SDS011;52756;52.826;6.214;2022-10-23T03:49:36;18.48;;;14.38;;
54937;SDS011;52756;52.826;6.214;2022-10-23T03:52:05;16.70;;;13.90;;
54937;SDS011;52756;52.826;6.214;2022-10-23T03:54:31;17.38;;;13.32;;
54937;SDS011;52756;52.826;6.214;2022-10-23T03:56:58;18.33;;;13.75;;
54937;SDS011;52756;52.826;6.214;2022-10-23T03:59:24;17.13;;;13.88;;
54937;SDS011;52756;52.826;6.214;2022-10-23T04:01:49;19.55;;;14.38;;
54937;SDS011;52756;52.826;6.214;2022-10-23T04:04:15;17.83;;;13.63;;
54937;SDS011;52756;52.826;6.214;2022-10-23T04:06:41;19.42;;;15.30;;
54937;SDS011;52756;52.826;6.214;2022-10-23T04:09:08;21.33;;;15.82;;
54937;SDS011;52756;52.826;6.214;2022-10-23T04:11:34;17.42;;;13.95;;
54937;SDS011;52756;52.826;6.214;2022-10-23T04:13:59;18.27;;;14.18;;
54937;SDS011;52756;52.826;6.214;2022-10-23T04:16:25;16.58;;;12.75;;
54937;SDS011;52756;52.826;6.214;2022-10-23T04:18:51;16.80;;;12.57;;
54937;SDS011;52756;52.826;6.214;2022-10-23T04:21:16;16.08;;;12.32;;
54937;SDS011;52756;52.826;6.214;2022-10-23T04:23:42;15.10;;;12.57;;
54937;SDS011;52756;52.826;6.214;2022-10-23T04:26:08;15.27;;;12.52;;
54937;SDS011;52756;52.826;6.214;2022-10-23T04:28:34;13.13;;;11.38;;
54937;SDS011;52756;52.826;6.214;2022-10-23T04:31:00;17.65;;;12.77;;
54937;SDS011;52756;52.826;6.214;2022-10-23T04:33:25;14.57;;;12.07;;
54937;SDS011;52756;52.826;6.214;2022-10-23T04:35:51;17.27;;;11.77;;
54937;SDS011;52756;52.826;6.214;2022-10-23T04:38:17;15.10;;;12.60;;
54937;SDS011;52756;52.826;6.214;2022-10-23T04:40:42;17.60;;;13.73;;
54937;SDS011;52756;52.826;6.214;2022-10-23T04:43:08;17.52;;;13.90;;
54937;SDS011;52756;52.826;6.214;2022-10-23T04:45:34;17.08;;;13.05;;
54937;SDS011;52756;52.826;6.214;2022-10-23T04:47:59;15.02;;;12.88;;
54937;SDS011;52756;52.826;6.214;2022-10-23T04:50:25;16.45;;;11.90;;
54937;SDS011;52756;52.826;6.214;2022-10-23T04:52:54;17.17;;;14.25;;
54937;SDS011;52756;52.826;6.214;2022-10-23T04:55:21;16.98;;;13.50;;
54937;SDS011;52756;52.826;6.214;2022-10-23T04:57:49;14.82;;;12.90;;
54937;SDS011;52756;52.826;6.214;2022-10-23T05:00:15;16.23;;;13.20;;
54937;SDS011;52756;52.826;6.214;2022-10-23T05:02:41;15.95;;;12.75;;
54937;SDS011;52756;52.826;6.214;2022-10-23T05:05:07;11.93;;;8.48;;
54937;SDS011;52756;52.826;6.214;2022-10-23T05:07:33;11.77;;;7.93;;
54937;SDS011;52756;52.826;6.214;2022-10-23T05:10:00;10.73;;;8.52;;
54937;SDS011;52756;52.826;6.214;2022-10-23T05:12:27;11.05;;;8.02;;
54937;SDS011;52756;52.826;6.214;2022-10-23T05:14:53;13.32;;;9.82;;
54937;SDS011;52756;52.826;6.214;2022-10-23T05:17:20;11.27;;;8.73;;
54937;SDS011;52756;52.826;6.214;2022-10-23T05:19:50;19.33;;;13.85;;
54937;SDS011;52756;52.826;6.214;2022-10-23T05:22:19;17.27;;;12.90;;
54937;SDS011;52756;52.826;6.214;2022-10-23T05:24:49;10.77;;;8.50;;
54937;SDS011;52756;52.826;6.214;2022-10-23T05:27:14;11.05;;;8.25;;
54937;SDS011;52756;52.826;6.214;2022-10-23T05:29:40;9.95;;;8.95;;
54937;SDS011;52756;52.826;6.214;2022-10-23T05:32:06;10.80;;;8.52;;
54937;SDS011;52756;52.826;6.214;2022-10-23T05:34:34;11.95;;;9.00;;
54937;SDS011;52756;52.826;6.214;2022-10-23T05:37:02;10.05;;;8.25;;
54937;SDS011;52756;52.826;6.214;2022-10-23T05:39:30;12.00;;;9.07;;
54937;SDS011;52756;52.826;6.214;2022-10-23T05:41:57;10.43;;;8.25;;
54937;SDS011;52756;52.826;6.214;2022-10-23T05:44:22;10.48;;;8.27;;
54937;SDS011;52756;52.826;6.214;2022-10-23T05:46:48;10.05;;;8.65;;
54937;SDS011;52756;52.826;6.214;2022-10-23T05:49:14;12.10;;;9.82;;
54937;SDS011;52756;52.826;6.214;2022-10-23T05:51:39;10.05;;;8.65;;
54937;SDS011;52756;52.826;6.214;2022-10-23T05:54:05;11.40;;;9.45;;
54937;SDS011;52756;52.826;6.214;2022-10-23T05:56:33;10.35;;;7.68;;
54937;SDS011;52756;52.826;6.214;2022-10-23T05:58:59;9.57;;;8.25;;
54937;SDS011;52756;52.826;6.214;2022-10-23T06:01:25;13.40;;;11.00;;
54937;SDS011;52756;52.826;6.214;2022-10-23T06:03:51;15.45;;;11.85;;
54937;SDS011;52756;52.826;6.214;2022-10-23T06:06:16;17.83;;;13.50;;
54937;SDS011;52756;52.826;6.214;2022-10-23T06:08:42;18.75;;;12.77;;
54937;SDS011;52756;52.826;6.214;2022-10-23T06:11:12;20.88;;;13.95;;
54937;SDS011;52756;52.826;6.214;2022-10-23T06:13:41;19.10;;;13.43;;
54937;SDS011;52756;52.826;6.214;2022-10-23T06:16:11;18.35;;;13.73;;
54937;SDS011;52756;52.826;6.214;2022-10-23T06:18:37;21.00;;;14.25;;
54937;SDS011;52756;52.826;6.214;2022-10-23T06:21:03;20.48;;;14.32;;
54937;SDS011;52756;52.826;6.214;2022-10-23T06:23:29;19.20;;;14.20;;
54937;SDS011;52756;52.826;6.214;2022-10-23T06:25:58;23.92;;;15.35;;
54937;SDS011;52756;52.826;6.214;2022-10-23T06:28:23;21.02;;;14.40;;
54937;SDS011;52756;52.826;6.214;2022-10-23T06:30:49;18.50;;;14.20;;
54937;SDS011;52756;52.826;6.214;2022-10-23T06:33:15;26.98;;;15.13;;
54937;SDS011;52756;52.826;6.214;2022-10-23T06:35:41;21.50;;;14.50;;
54937;SDS011;52756;52.826;6.214;2022-10-23T06:38:06;20.60;;;15.82;;
54937;SDS011;52756;52.826;6.214;2022-10-23T06:40:34;20.77;;;14.88;;
54937;SDS011;52756;52.826;6.214;2022-10-23T06:43:00;21.67;;;15.27;;
54937;SDS011;52756;52.826;6.214;2022-10-23T06:45:26;23.73;;;15.98;;
54937;SDS011;52756;52.826;6.214;2022-10-23T06:47:54;24.08;;;16.08;;
54937;SDS011;52756;52.826;6.214;2022-10-23T06:50:20;24.85;;;15.95;;
54937;SDS011;52756;52.826;6.214;2022-10-23T06:52:45;21.20;;;16.00;;
54937;SDS011;52756;52.826;6.214;2022-10-23T06:55:11;20.80;;;14.82;;
54937;SDS011;52756;52.826;6.214;2022-10-23T06:57:37;27.42;;;16.15;;
54937;SDS011;52756;52.826;6.214;2022-10-23T07:00:03;22.75;;;15.95;;
54937;SDS011;52756;52.826;6.214;2022-10-23T07:02:29;21.33;;;15.48;;
54937;SDS011;52756;52.826;6.214;2022-10-23T07:04:54;25.55;;;16.02;;
54937;SDS011;52756;52.826;6.214;2022-10-23T07:07:20;23.02;;;16.30;;
54937;SDS011;52756;52.826;6.214;2022-10-23T07:09:46;24.80;;;17.08;;
54937;SDS011;52756;52.826;6.214;2022-10-23T07:12:12;27.40;;;16.70;;
54937;SDS011;52756;52.826;6.214;2022-10-23T07:14:37;28.52;;;16.52;;
54937;SDS011;52756;52.826;6.214;2022-10-23T07:17:03;28.38;;;16.30;;
54937;SDS011;52756;52.826;6.214;2022-10-23T07:19:29;25.63;;;17.40;;
54937;SDS011;52756;52.826;6.214;2022-10-23T07:21:54;22.17;;;15.50;;
54937;SDS011;52756;52.826;6.214;2022-10-23T07:24:20;23.67;;;14.80;;
54937;SDS011;52756;52.826;6.214;2022-10-23T07:26:46;22.27;;;16.17;;
54937;SDS011;52756;52.826;6.214;2022-10-23T07:29:12;22.48;;;16.63;;
54937;SDS011;52756;52.826;6.214;2022-10-23T07:31:37;24.83;;;15.85;;
54937;SDS011;52756;52.826;6.214;2022-10-23T07:34:03;27.17;;;16.95;;
54937;SDS011;52756;52.826;6.214;2022-10-23T07:36:30;17.80;;;15.40;;
54937;SDS011;52756;52.826;6.214;2022-10-23T07:38:56;27.35;;;16.85;;
54937;SDS011;52756;52.826;6.214;2022-10-23T07:41:22;23.02;;;14.65;;
54937;SDS011;52756;52.826;6.214;2022-10-23T07:43:47;21.08;;;14.65;;
54937;SDS011;52756;52.826;6.214;2022-10-23T07:46:13;24.60;;;15.65;;
54937;SDS011;52756;52.826;6.214;2022-10-23T07:48:39;19.00;;;15.45;;
54937;SDS011;52756;52.826;6.214;2022-10-23T07:51:10;22.20;;;15.57;;
54937;SDS011;52756;52.826;6.214;2022-10-23T07:53:38;22.33;;;14.77;;
54937;SDS011;52756;52.826;6.214;2022-10-23T07:56:11;19.38;;;15.07;;
54937;SDS011;52756;52.826;6.214;2022-10-23T07:58:39;18.33;;;14.50;;
54937;SDS011;52756;52.826;6.214;2022-10-23T08:01:10;22.42;;;16.42;;
54937;SDS011;52756;52.826;6.214;2022-10-23T08:03:40;23.45;;;15.45;;
54937;SDS011;52756;52.826;6.214;2022-10-23T08:06:06;121.28;;;74.50;;
54937;SDS011;52756;52.826;6.214;2022-10-23T08:08:31;28.98;;;21.38;;
54937;SDS011;52756;52.826;6.214;2022-10-23T08:10:57;21.55;;;15.77;;
54937;SDS011;52756;52.826;6.214;2022-10-23T08:13:23;26.70;;;16.92;;
54937;SDS011;52756;52.826;6.214;2022-10-23T08:15:49;21.52;;;15.10;;
54937;SDS011;52756;52.826;6.214;2022-10-23T08:18:16;20.15;;;14.80;;
54937;SDS011;52756;52.826;6.214;2022-10-23T08:20:43;21.00;;;14.05;;
54937;SDS011;52756;52.826;6.214;2022-10-23T08:23:10;25.40;;;15.75;;
54937;SDS011;52756;52.826;6.214;2022-10-23T08:25:37;18.67;;;14.15;;
54937;SDS011;52756;52.826;6.214;2022-10-23T08:28:04;19.55;;;15.18;;
54937;SDS011;52756;52.826;6.214;2022-10-23T08:30:31;19.98;;;14.07;;
54937;SDS011;52756;52.826;6.214;2022-10-23T08:32:57;22.73;;;15.15;;
54937;SDS011;52756;52.826;6.214;2022-10-23T08:35:22;20.45;;;15.23;;
54937;SDS011;52756;52.826;6.214;2022-10-23T08:37:48;20.27;;;14.35;;
54937;SDS011;52756;52.826;6.214;2022-10-23T08:40:15;18.73;;;14.40;;
54937;SDS011;52756;52.826;6.214;2022-10-23T08:42:43;19.15;;;14.88;;
54937;SDS011;52756;52.826;6.214;2022-10-23T08:45:32;19.33;;;15.10;;
54937;SDS011;52756;52.826;6.214;2022-10-23T08:48:05;18.25;;;14.63;;
54937;SDS011;52756;52.826;6.214;2022-10-23T08:50:57;17.20;;;13.77;;
54937;SDS011;52756;52.826;6.214;2022-10-23T08:56:06;19.55;;;13.98;;
54937;SDS011;52756;52.826;6.214;2022-10-23T08:58:46;22.45;;;13.07;;
54937;SDS011;52756;52.826;6.214;2022-10-23T09:01:22;14.43;;;12.07;;
54937;SDS011;52756;52.826;6.214;2022-10-23T09:04:02;18.38;;;13.20;;
54937;SDS011;52756;52.826;6.214;2022-10-23T09:06:32;18.83;;;11.70;;
54937;SDS011;52756;52.826;6.214;2022-10-23T09:17:35;17.52;;;12.15;;
54937;SDS011;52756;52.826;6.214;2022-10-23T09:20:15;16.48;;;11.63;;
54937;SDS011;52756;52.826;6.214;2022-10-23T09:22:47;13.63;;;10.90;;
54937;SDS011;52756;52.826;6.214;2022-10-23T09:25:36;14.82;;;11.43;;
54937;SDS011;52756;52.826;6.214;2022-10-23T09:28:04;15.00;;;11.55;;
54937;SDS011;52756;52.826;6.214;2022-10-23T09:33:12;15.88;;;10.93;;
54937;SDS011;52756;52.826;6.214;2022-10-23T09:38:25;13.98;;;9.82;;
54937;SDS011;52756;52.826;6.214;2022-10-23T09:41:00;12.07;;;9.43;;
54937;SDS011;52756;52.826;6.214;2022-10-23T09:43:31;17.23;;;9.95;;
54937;SDS011;52756;52.826;6.214;2022-10-23T09:45:58;12.15;;;10.07;;
54937;SDS011;52756;52.826;6.214;2022-10-23T09:48:29;15.63;;;9.85;;
54937;SDS011;52756;52.826;6.214;2022-10-23T09:50:57;12.23;;;9.02;;
54937;SDS011;52756;52.826;6.214;2022-10-23T09:56:04;13.20;;;9.00;;
54937;SDS011;52756;52.826;6.214;2022-10-23T09:58:58;10.23;;;8.45;;
54937;SDS011;52756;52.826;6.214;2022-10-23T10:01:27;12.68;;;7.88;;
54937;SDS011;52756;52.826;6.214;2022-10-23T10:04:00;11.95;;;8.57;;
54937;SDS011;52756;52.826;6.214;2022-10-23T10:06:30;11.27;;;8.35;;
54937;SDS011;52756;52.826;6.214;2022-10-23T10:08:58;12.82;;;7.78;;
54937;SDS011;52756;52.826;6.214;2022-10-23T10:24:47;11.82;;;7.35;;
54937;SDS011;52756;52.826;6.214;2022-10-23T10:28:09;10.43;;;6.65;;
54937;SDS011;52756;52.826;6.214;2022-10-23T10:30:17;8.32;;;6.32;;
54937;SDS011;52756;52.826;6.214;2022-10-23T10:47:10;12.98;;;6.40;;
54937;SDS011;52756;52.826;6.214;2022-10-23T10:49:18;11.77;;;5.82;;
54937;SDS011;52756;52.826;6.214;2022-10-23T10:52:07;11.23;;;6.15;;
54937;SDS011;52756;52.826;6.214;2022-10-23T10:57:46;6.77;;;5.50;;
54937;SDS011;52756;52.826;6.214;2022-10-23T11:00:17;9.48;;;5.93;;
54937;SDS011;52756;52.826;6.214;2022-10-23T11:02:47;7.50;;;5.30;;
54937;SDS011;52756;52.826;6.214;2022-10-23T11:05:32;8.30;;;6.32;;
54937;SDS011;52756;52.826;6.214;2022-10-23T11:08:13;7.80;;;5.57;;
54937;SDS011;52756;52.826;6.214;2022-10-23T11:10:48;5.82;;;4.75;;
54937;SDS011;52756;52.826;6.214;2022-10-23T11:13:25;7.30;;;5.35;;
54937;SDS011;52756;52.826;6.214;2022-10-23T11:15:58;7.45;;;5.40;;
54937;SDS011;52756;52.826;6.214;2022-10-23T11:19:00;8.48;;;5.15;;
54937;SDS011;52756;52.826;6.214;2022-10-23T11:24:20;8.50;;;4.63;;
54937;SDS011;52756;52.826;6.214;2022-10-23T11:37:43;5.53;;;4.07;;
54937;SDS011;52756;52.826;6.214;2022-10-23T11:45:24;10.40;;;4.47;;
54937;SDS011;52756;52.826;6.214;2022-10-23T11:56:19;8.80;;;3.95;;
54937;SDS011;52756;52.826;6.214;2022-10-23T11:58:49;8.90;;;3.67;;
54937;SDS011;52756;52.826;6.214;2022-10-23T12:03:55;7.70;;;4.18;;
54937;SDS011;52756;52.826;6.214;2022-10-23T12:06:30;10.43;;;4.60;;
54937;SDS011;52756;52.826;6.214;2022-10-23T12:09:05;8.90;;;4.07;;
54937;SDS011;52756;52.826;6.214;2022-10-23T12:11:47;6.28;;;3.88;;
54937;SDS011;52756;52.826;6.214;2022-10-23T12:14:25;6.20;;;3.75;;
54937;SDS011;52756;52.826;6.214;2022-10-23T12:16:59;6.32;;;4.07;;
54937;SDS011;52756;52.826;6.214;2022-10-23T12:19:28;5.97;;;3.50;;
54937;SDS011;52756;52.826;6.214;2022-10-23T12:22:07;8.88;;;4.25;;
54937;SDS011;52756;52.826;6.214;2022-10-23T12:28:11;9.07;;;4.10;;
54937;SDS011;52756;52.826;6.214;2022-10-23T12:30:21;6.90;;;4.40;;
54937;SDS011;52756;52.826;6.214;2022-10-23T12:33:07;5.43;;;3.40;;
54937;SDS011;52756;52.826;6.214;2022-10-23T12:38:46;6.10;;;4.03;;
54937;SDS011;52756;52.826;6.214;2022-10-23T12:41:23;10.20;;;4.60;;
54937;SDS011;52756;52.826;6.214;2022-10-23T12:43:52;11.10;;;4.05;;
54937;SDS011;52756;52.826;6.214;2022-10-23T12:48:53;9.73;;;3.60;;
54937;SDS011;52756;52.826;6.214;2022-10-23T12:51:27;6.95;;;3.70;;
54937;SDS011;52756;52.826;6.214;2022-10-23T12:53:58;8.35;;;3.30;;
54937;SDS011;52756;52.826;6.214;2022-10-23T12:56:25;7.45;;;3.28;;
54937;SDS011;52756;52.826;6.214;2022-10-23T12:58:52;7.93;;;3.83;;
54937;SDS011;52756;52.826;6.214;2022-10-23T13:01:22;10.85;;;3.90;;
54937;SDS011;52756;52.826;6.214;2022-10-23T13:03:49;7.00;;;3.70;;
54937;SDS011;52756;52.826;6.214;2022-10-23T13:06:16;8.50;;;4.00;;
54937;SDS011;52756;52.826;6.214;2022-10-23T13:08:43;7.70;;;3.22;;
54937;SDS011;52756;52.826;6.214;2022-10-23T13:11:14;7.13;;;3.75;;
54937;SDS011;52756;52.826;6.214;2022-10-23T13:13:42;10.70;;;4.07;;
54937;SDS011;52756;52.826;6.214;2022-10-23T13:16:12;8.95;;;3.25;;
54937;SDS011;52756;52.826;6.214;2022-10-23T13:18:40;6.95;;;3.25;;
54937;SDS011;52756;52.826;6.214;2022-10-23T13:21:14;7.25;;;3.25;;
54937;SDS011;52756;52.826;6.214;2022-10-23T13:23:44;11.50;;;3.72;;
54937;SDS011;52756;52.826;6.214;2022-10-23T13:26:23;7.28;;;2.97;;
54937;SDS011;52756;52.826;6.214;2022-10-23T13:29:14;6.95;;;2.78;;
54937;SDS011;52756;52.826;6.214;2022-10-23T13:31:53;5.28;;;2.78;;
54937;SDS011;52756;52.826;6.214;2022-10-23T13:36:59;6.22;;;3.17;;
54937;SDS011;52756;52.826;6.214;2022-10-23T13:39:28;8.43;;;3.00;;
54937;SDS011;52756;52.826;6.214;2022-10-23T13:41:55;5.30;;;3.00;;
54937;SDS011;52756;52.826;6.214;2022-10-23T13:44:25;6.45;;;2.60;;
54937;SDS011;52756;52.826;6.214;2022-10-23T13:46:51;5.18;;;2.60;;
54937;SDS011;52756;52.826;6.214;2022-10-23T13:49:17;6.53;;;2.72;;
54937;SDS011;52756;52.826;6.214;2022-10-23T13:51:45;7.75;;;3.05;;
54937;SDS011;52756;52.826;6.214;2022-10-23T13:54:23;4.82;;;2.80;;
54937;SDS011;52756;52.826;6.214;2022-10-23T13:56:50;8.27;;;3.33;;
54937;SDS011;52756;52.826;6.214;2022-10-23T13:59:17;4.97;;;2.90;;
54937;SDS011;52756;52.826;6.214;2022-10-23T14:01:43;10.90;;;2.78;;
54937;SDS011;52756;52.826;6.214;2022-10-23T14:04:09;6.30;;;3.10;;
54937;SDS011;52756;52.826;6.214;2022-10-23T14:06:35;7.20;;;3.17;;
54937;SDS011;52756;52.826;6.214;2022-10-23T14:09:05;6.53;;;2.90;;
54937;SDS011;52756;52.826;6.214;2022-10-23T14:11:36;5.75;;;2.80;;
54937;SDS011;52756;52.826;6.214;2022-10-23T14:14:01;8.73;;;3.28;;
54937;SDS011;52756;52.826;6.214;2022-10-23T14:16:27;7.47;;;2.92;;
54937;SDS011;52756;52.826;6.214;2022-10-23T14:18:53;4.97;;;2.45;;
54937;SDS011;52756;52.826;6.214;2022-10-23T14:21:20;6.15;;;2.60;;
54937;SDS011;52756;52.826;6.214;2022-10-23T14:23:47;5.25;;;2.92;;
54937;SDS011;52756;52.826;6.214;2022-10-23T14:26:14;6.30;;;2.95;;
54937;SDS011;52756;52.826;6.214;2022-10-23T14:28:43;6.68;;;2.85;;
54937;SDS011;52756;52.826;6.214;2022-10-23T14:31:10;4.25;;;2.80;;
54937;SDS011;52756;52.826;6.214;2022-10-23T14:33:38;5.85;;;2.92;;
54937;SDS011;52756;52.826;6.214;2022-10-23T14:36:04;8.65;;;3.00;;
54937;SDS011;52756;52.826;6.214;2022-10-23T14:38:30;5.60;;;2.92;;
54937;SDS011;52756;52.826;6.214;2022-10-23T14:40:56;7.95;;;3.10;;
54937;SDS011;52756;52.826;6.214;2022-10-23T14:43:22;7.68;;;2.83;;
54937;SDS011;52756;52.826;6.214;2022-10-23T14:45:48;5.75;;;3.03;;
54937;SDS011;52756;52.826;6.214;2022-10-23T14:48:13;4.80;;;2.80;;
54937;SDS011;52756;52.826;6.214;2022-10-23T14:50:44;7.03;;;2.33;;
54937;SDS011;52756;52.826;6.214;2022-10-23T14:53:11;5.13;;;2.40;;
54937;SDS011;52756;52.826;6.214;2022-10-23T14:55:37;9.75;;;2.95;;
54937;SDS011;52756;52.826;6.214;2022-10-23T14:58:03;6.20;;;2.65;;
54937;SDS011;52756;52.826;6.214;2022-10-23T15:00:29;4.05;;;2.38;;
54937;SDS011;52756;52.826;6.214;2022-10-23T15:02:54;5.35;;;2.92;;
54937;SDS011;52756;52.826;6.214;2022-10-23T15:05:20;6.07;;;2.70;;
54937;SDS011;52756;52.826;6.214;2022-10-23T15:07:46;4.53;;;2.70;;
54937;SDS011;52756;52.826;6.214;2022-10-23T15:10:11;6.50;;;2.78;;
54937;SDS011;52756;52.826;6.214;2022-10-23T15:12:37;7.47;;;3.33;;
54937;SDS011;52756;52.826;6.214;2022-10-23T15:15:04;7.88;;;2.80;;
54937;SDS011;52756;52.826;6.214;2022-10-23T15:17:30;7.00;;;2.50;;
54937;SDS011;52756;52.826;6.214;2022-10-23T15:19:58;5.82;;;2.70;;
54937;SDS011;52756;52.826;6.214;2022-10-23T15:22:26;7.80;;;4.00;;
54937;SDS011;52756;52.826;6.214;2022-10-23T15:24:52;5.75;;;3.47;;
54937;SDS011;52756;52.826;6.214;2022-10-23T15:27:19;8.52;;;3.78;;
54937;SDS011;52756;52.826;6.214;2022-10-23T15:29:44;5.93;;;3.42;;
54937;SDS011;52756;52.826;6.214;2022-10-23T15:32:10;6.03;;;2.70;;
54937;SDS011;52756;52.826;6.214;2022-10-23T15:34:36;6.35;;;2.75;;
54937;SDS011;52756;52.826;6.214;2022-10-23T15:37:03;4.97;;;2.67;;
54937;SDS011;52756;52.826;6.214;2022-10-23T15:39:30;5.50;;;2.50;;
54937;SDS011;52756;52.826;6.214;2022-10-23T15:42:00;5.15;;;2.35;;
54937;SDS011;52756;52.826;6.214;2022-10-23T15:44:31;7.70;;;2.45;;
54937;SDS011;52756;52.826;6.214;2022-10-23T15:46:57;7.45;;;2.50;;
54937;SDS011;52756;52.826;6.214;2022-10-23T15:49:24;7.25;;;2.55;;
54937;SDS011;52756;52.826;6.214;2022-10-23T15:51:51;11.00;;;3.22;;
54937;SDS011;52756;52.826;6.214;2022-10-23T15:54:17;8.18;;;2.58;;
54937;SDS011;52756;52.826;6.214;2022-10-23T15:56:45;6.93;;;2.20;;
54937;SDS011;52756;52.826;6.214;2022-10-23T15:59:12;7.00;;;2.70;;
54937;SDS011;52756;52.826;6.214;2022-10-23T16:01:38;9.43;;;2.53;;
54937;SDS011;52756;52.826;6.214;2022-10-23T16:04:03;6.63;;;2.58;;
54937;SDS011;52756;52.826;6.214;2022-10-23T16:06:29;6.93;;;2.55;;
54937;SDS011;52756;52.826;6.214;2022-10-23T16:08:55;6.90;;;2.25;;
54937;SDS011;52756;52.826;6.214;2022-10-23T16:11:25;6.88;;;2.78;;
54937;SDS011;52756;52.826;6.214;2022-10-23T16:13:53;6.57;;;2.40;;
54937;SDS011;52756;52.826;6.214;2022-10-23T16:16:20;6.00;;;2.25;;
54937;SDS011;52756;52.826;6.214;2022-10-23T16:18:46;4.75;;;2.45;;
54937;SDS011;52756;52.826;6.214;2022-10-23T16:21:23;7.20;;;2.70;;
54937;SDS011;52756;52.826;6.214;2022-10-23T16:23:51;6.55;;;2.97;;
54937;SDS011;52756;52.826;6.214;2022-10-23T16:26:18;5.90;;;2.55;;
54937;SDS011;52756;52.826;6.214;2022-10-23T16:28:44;4.90;;;2.58;;
54937;SDS011;52756;52.826;6.214;2022-10-23T16:31:12;7.40;;;2.72;;
54937;SDS011;52756;52.826;6.214;2022-10-23T16:33:40;8.02;;;2.13;;
54937;SDS011;52756;52.826;6.214;2022-10-23T16:36:06;4.97;;;2.40;;
54937;SDS011;52756;52.826;6.214;2022-10-23T16:38:33;4.88;;;2.40;;